sim
Sign-in with your pilot id or email,
or register
Callsign
Passwort

Schedule Details

Flight Number: OEO1817
Departure: Tallinn Lennart Meri Airport (EETN) at 09:15
Arrival: Munich Airport (EDDM) at 11:55

Weather Information
Getting current METAR information for EETN 261820Z 12009KT CAVOK 18/14 Q1011 NOSIG
Getting current METAR information for EDDM 261820Z 24020G32KT 9999 -RA OVC023 07/04 Q1001 NOSIG

Schedule Frequency

Route Map